sensor_id;sensor_type;location;lat;lon;timestamp;pressure;altitude;pressure_sealevel;temperature;humidity
71907;BME280;59781;52.090;5.030;2023-12-07T00:01:35;102017.66;;;0.32;100.00
71907;BME280;59781;52.090;5.030;2023-12-07T00:04:03;102022.50;;;0.58;100.00
71907;BME280;59781;52.090;5.030;2023-12-07T00:06:29;102009.72;;;0.32;100.00
71907;BME280;59781;52.090;5.030;2023-12-07T00:08:54;102008.25;;;0.07;100.00
71907;BME280;59781;52.090;5.030;2023-12-07T00:11:24;102009.72;;;-0.05;100.00
71907;BME280;59781;52.090;5.030;2023-12-07T00:13:49;102007.97;;;-0.23;100.00
71907;BME280;59781;52.090;5.030;2023-12-07T00:16:15;102002.47;;;-0.37;100.00
71907;BME280;59781;52.090;5.030;2023-12-07T00:18:41;102001.38;;;-0.52;100.00
71907;BME280;59781;52.090;5.030;2023-12-07T00:21:10;102001.25;;;-0.68;100.00
71907;BME280;59781;52.090;5.030;2023-12-07T00:23:36;102001.16;;;-0.85;100.00
71907;BME280;59781;52.090;5.030;2023-12-07T00:26:05;102002.16;;;-0.88;100.00
71907;BME280;59781;52.090;5.030;2023-12-07T00:28:31;101994.91;;;-1.03;100.00
71907;BME280;59781;52.090;5.030;2023-12-07T00:30:57;101995.84;;;-1.04;100.00
71907;BME280;59781;52.090;5.030;2023-12-07T00:33:22;101999.53;;;-0.88;100.00
71907;BME280;59781;52.090;5.030;2023-12-07T00:35:48;102000.09;;;-0.81;100.00
71907;BME280;59781;52.090;5.030;2023-12-07T00:38:14;101999.31;;;-0.83;100.00
71907;BME280;59781;52.090;5.030;2023-12-07T00:40:40;101997.25;;;-0.76;100.00
71907;BME280;59781;52.090;5.030;2023-12-07T00:43:06;101996.16;;;-0.91;100.00
71907;BME280;59781;52.090;5.030;2023-12-07T00:45:35;101985.22;;;-0.83;100.00
71907;BME280;59781;52.090;5.030;2023-12-07T00:48:00;101997.47;;;-0.62;100.00
71907;BME280;59781;52.090;5.030;2023-12-07T00:50:26;101988.66;;;-0.63;100.00
71907;BME280;59781;52.090;5.030;2023-12-07T00:52:52;101982.34;;;-0.79;100.00
71907;BME280;59781;52.090;5.030;2023-12-07T00:55:17;101984.78;;;-0.93;100.00
71907;BME280;59781;52.090;5.030;2023-12-07T00:57:43;101986.91;;;-1.01;100.00
71907;BME280;59781;52.090;5.030;2023-12-07T01:00:09;101986.78;;;-1.19;100.00
71907;BME280;59781;52.090;5.030;2023-12-07T01:02:36;101993.94;;;-1.21;100.00
71907;BME280;59781;52.090;5.030;2023-12-07T01:05:01;102004.59;;;-1.22;100.00
71907;BME280;59781;52.090;5.030;2023-12-07T01:07:27;102010.66;;;-1.20;100.00
71907;BME280;59781;52.090;5.030;2023-12-07T01:09:53;102000.28;;;-1.25;100.00
71907;BME280;59781;52.090;5.030;2023-12-07T01:12:19;102010.19;;;-1.30;100.00
71907;BME280;59781;52.090;5.030;2023-12-07T01:14:45;102017.47;;;-1.35;100.00
71907;BME280;59781;52.090;5.030;2023-12-07T01:17:11;102010.41;;;-1.34;100.00
71907;BME280;59781;52.090;5.030;2023-12-07T01:19:36;102016.09;;;-1.43;100.00
71907;BME280;59781;52.090;5.030;2023-12-07T01:22:02;102019.03;;;-1.51;100.00
71907;BME280;59781;52.090;5.030;2023-12-07T01:24:28;102015.38;;;-1.47;100.00
71907;BME280;59781;52.090;5.030;2023-12-07T01:26:54;102014.63;;;-1.51;100.00
71907;BME280;59781;52.090;5.030;2023-12-07T01:29:20;102022.94;;;-1.39;100.00
71907;BME280;59781;52.090;5.030;2023-12-07T01:31:46;102019.97;;;-1.52;100.00
71907;BME280;59781;52.090;5.030;2023-12-07T01:34:12;102018.72;;;-1.43;100.00
71907;BME280;59781;52.090;5.030;2023-12-07T01:36:37;102021.53;;;-1.48;100.00
71907;BME280;59781;52.090;5.030;2023-12-07T01:39:03;102023.53;;;-1.53;100.00
71907;BME280;59781;52.090;5.030;2023-12-07T01:41:30;102019.25;;;-1.56;100.00
71907;BME280;59781;52.090;5.030;2023-12-07T01:43:55;102015.63;;;-1.53;100.00
71907;BME280;59781;52.090;5.030;2023-12-07T01:46:21;102025.13;;;-1.49;100.00
71907;BME280;59781;52.090;5.030;2023-12-07T01:48:47;102011.63;;;-1.63;100.00
71907;BME280;59781;52.090;5.030;2023-12-07T01:51:15;102009.00;;;-1.63;100.00
71907;BME280;59781;52.090;5.030;2023-12-07T01:53:44;102012.91;;;-1.52;100.00
71907;BME280;59781;52.090;5.030;2023-12-07T01:56:11;102012.56;;;-1.64;100.00
71907;BME280;59781;52.090;5.030;2023-12-07T01:58:37;102018.78;;;-1.65;100.00
71907;BME280;59781;52.090;5.030;2023-12-07T02:01:03;102014.66;;;-1.73;100.00
71907;BME280;59781;52.090;5.030;2023-12-07T02:03:31;102012.75;;;-1.69;100.00
71907;BME280;59781;52.090;5.030;2023-12-07T02:05:58;102014.22;;;-1.41;100.00
71907;BME280;59781;52.090;5.030;2023-12-07T02:08:24;102015.53;;;-1.31;100.00
71907;BME280;59781;52.090;5.030;2023-12-07T02:10:50;102010.00;;;-1.46;100.00
71907;BME280;59781;52.090;5.030;2023-12-07T02:13:19;102009.19;;;-1.68;100.00
71907;BME280;59781;52.090;5.030;2023-12-07T02:15:46;102006.50;;;-1.66;100.00
71907;BME280;59781;52.090;5.030;2023-12-07T02:18:40;102006.66;;;-1.71;100.00
71907;BME280;59781;52.090;5.030;2023-12-07T02:21:30;102001.56;;;-1.54;100.00
71907;BME280;59781;52.090;5.030;2023-12-07T02:24:02;102020.50;;;-1.44;100.00
71907;BME280;59781;52.090;5.030;2023-12-07T02:26:35;102010.19;;;-1.50;100.00
71907;BME280;59781;52.090;5.030;2023-12-07T02:29:02;102015.63;;;-1.53;100.00
71907;BME280;59781;52.090;5.030;2023-12-07T02:31:29;102021.97;;;-1.37;100.00
71907;BME280;59781;52.090;5.030;2023-12-07T02:33:55;102019.44;;;-1.40;100.00
71907;BME280;59781;52.090;5.030;2023-12-07T02:36:24;102007.00;;;-1.58;100.00
71907;BME280;59781;52.090;5.030;2023-12-07T02:38:56;102007.53;;;-1.30;100.00
71907;BME280;59781;52.090;5.030;2023-12-07T02:41:26;101999.50;;;-1.47;100.00
71907;BME280;59781;52.090;5.030;2023-12-07T02:43:53;102002.00;;;-1.44;100.00
71907;BME280;59781;52.090;5.030;2023-12-07T02:46:20;102018.03;;;-1.49;100.00
71907;BME280;59781;52.090;5.030;2023-12-07T02:48:46;102011.13;;;-1.51;100.00
71907;BME280;59781;52.090;5.030;2023-12-07T02:51:11;102017.88;;;-1.44;100.00
71907;BME280;59781;52.090;5.030;2023-12-07T02:53:37;102009.66;;;-1.58;100.00
71907;BME280;59781;52.090;5.030;2023-12-07T02:56:03;102014.94;;;-1.58;100.00
71907;BME280;59781;52.090;5.030;2023-12-07T02:58:29;102010.56;;;-1.59;100.00
71907;BME280;59781;52.090;5.030;2023-12-07T03:00:54;102014.09;;;-1.38;100.00
71907;BME280;59781;52.090;5.030;2023-12-07T03:03:20;102015.28;;;-1.46;100.00
71907;BME280;59781;52.090;5.030;2023-12-07T03:05:46;102011.44;;;-1.59;100.00
71907;BME280;59781;52.090;5.030;2023-12-07T03:08:11;102008.44;;;-1.71;100.00
71907;BME280;59781;52.090;5.030;2023-12-07T03:10:37;102005.03;;;-1.74;100.00
71907;BME280;59781;52.090;5.030;2023-12-07T03:13:03;102016.53;;;-1.54;100.00
71907;BME280;59781;52.090;5.030;2023-12-07T03:15:28;102025.13;;;-1.49;100.00
71907;BME280;59781;52.090;5.030;2023-12-07T03:17:54;102029.28;;;-1.64;100.00
71907;BME280;59781;52.090;5.030;2023-12-07T03:20:20;102025.50;;;-1.58;100.00
71907;BME280;59781;52.090;5.030;2023-12-07T03:22:46;102030.44;;;-1.71;100.00
71907;BME280;59781;52.090;5.030;2023-12-07T03:25:12;102025.19;;;-1.51;100.00
71907;BME280;59781;52.090;5.030;2023-12-07T03:27:37;102036.28;;;-1.22;100.00
71907;BME280;59781;52.090;5.030;2023-12-07T03:30:03;102027.69;;;-1.48;100.00
71907;BME280;59781;52.090;5.030;2023-12-07T03:32:30;102033.19;;;-1.52;100.00
71907;BME280;59781;52.090;5.030;2023-12-07T03:34:55;102028.88;;;-1.55;100.00
71907;BME280;59781;52.090;5.030;2023-12-07T03:37:21;102027.03;;;-1.53;100.00
71907;BME280;59781;52.090;5.030;2023-12-07T03:39:47;102029.81;;;-1.35;100.00
71907;BME280;59781;52.090;5.030;2023-12-07T03:42:12;102027.19;;;-1.35;100.00
71907;BME280;59781;52.090;5.030;2023-12-07T03:44:38;102032.53;;;-1.37;100.00
71907;BME280;59781;52.090;5.030;2023-12-07T03:47:04;102024.31;;;-1.51;100.00
71907;BME280;59781;52.090;5.030;2023-12-07T03:49:30;102028.28;;;-1.61;100.00
71907;BME280;59781;52.090;5.030;2023-12-07T03:51:56;102024.84;;;-1.63;100.00
71907;BME280;59781;52.090;5.030;2023-12-07T03:54:22;102021.59;;;-1.70;100.00
71907;BME280;59781;52.090;5.030;2023-12-07T03:56:47;102023.69;;;-1.56;100.00
71907;BME280;59781;52.090;5.030;2023-12-07T03:59:13;102023.84;;;-1.61;100.00
71907;BME280;59781;52.090;5.030;2023-12-07T04:01:39;102027.28;;;-1.38;100.00
71907;BME280;59781;52.090;5.030;2023-12-07T04:04:04;102036.22;;;-1.21;100.00
71907;BME280;59781;52.090;5.030;2023-12-07T04:06:30;102030.41;;;-0.69;100.00
71907;BME280;59781;52.090;5.030;2023-12-07T04:08:56;102028.84;;;-0.73;100.00
71907;BME280;59781;52.090;5.030;2023-12-07T04:11:21;102024.97;;;-0.85;100.00
71907;BME280;59781;52.090;5.030;2023-12-07T04:13:48;102014.25;;;-0.82;100.00
71907;BME280;59781;52.090;5.030;2023-12-07T04:16:14;102018.47;;;-0.40;100.00
71907;BME280;59781;52.090;5.030;2023-12-07T04:18:40;102010.34;;;-0.36;100.00
71907;BME280;59781;52.090;5.030;2023-12-07T04:21:06;102023.41;;;-0.51;100.00
71907;BME280;59781;52.090;5.030;2023-12-07T04:23:31;102032.25;;;-0.71;100.00
71907;BME280;59781;52.090;5.030;2023-12-07T04:25:57;102033.91;;;-0.50;100.00
71907;BME280;59781;52.090;5.030;2023-12-07T04:28:23;102028.88;;;-0.36;100.00
71907;BME280;59781;52.090;5.030;2023-12-07T04:30:48;102011.63;;;-0.25;100.00
71907;BME280;59781;52.090;5.030;2023-12-07T04:33:14;102022.53;;;0.05;100.00
71907;BME280;59781;52.090;5.030;2023-12-07T04:35:40;102024.84;;;-0.07;100.00
71907;BME280;59781;52.090;5.030;2023-12-07T04:38:05;102026.09;;;0.04;100.00
71907;BME280;59781;52.090;5.030;2023-12-07T04:40:31;102023.75;;;-0.03;100.00
71907;BME280;59781;52.090;5.030;2023-12-07T04:42:57;102030.72;;;0.17;100.00
71907;BME280;59781;52.090;5.030;2023-12-07T04:45:22;102014.75;;;0.19;100.00
71907;BME280;59781;52.090;5.030;2023-12-07T04:47:48;102014.00;;;0.34;100.00
71907;BME280;59781;52.090;5.030;2023-12-07T04:50:14;102019.44;;;0.14;100.00
71907;BME280;59781;52.090;5.030;2023-12-07T04:52:40;102016.97;;;0.09;100.00
71907;BME280;59781;52.090;5.030;2023-12-07T04:55:06;102013.59;;;0.24;100.00
71907;BME280;59781;52.090;5.030;2023-12-07T04:57:35;102023.22;;;0.08;100.00
71907;BME280;59781;52.090;5.030;2023-12-07T05:00:05;102022.41;;;0.25;100.00
71907;BME280;59781;52.090;5.030;2023-12-07T05:02:31;102015.22;;;0.27;100.00
71907;BME280;59781;52.090;5.030;2023-12-07T05:04:58;102023.22;;;0.08;100.00
71907;BME280;59781;52.090;5.030;2023-12-07T05:07:23;102010.44;;;-0.20;100.00
71907;BME280;59781;52.090;5.030;2023-12-07T05:09:50;102015.81;;;-0.03;100.00
71907;BME280;59781;52.090;5.030;2023-12-07T05:12:18;102029.41;;;-0.10;100.00
71907;BME280;59781;52.090;5.030;2023-12-07T05:14:44;102022.19;;;-0.07;100.00
71907;BME280;59781;52.090;5.030;2023-12-07T05:17:10;102034.69;;;-0.10;100.00
71907;BME280;59781;52.090;5.030;2023-12-07T05:19:36;102030.66;;;-0.17;100.00
71907;BME280;59781;52.090;5.030;2023-12-07T05:22:02;102021.47;;;-0.10;100.00
71907;BME280;59781;52.090;5.030;2023-12-07T05:24:28;102024.19;;;-0.12;100.00
71907;BME280;59781;52.090;5.030;2023-12-07T05:26:55;102009.38;;;0.03;100.00
71907;BME280;59781;52.090;5.030;2023-12-07T05:29:21;102012.44;;;-0.06;100.00
71907;BME280;59781;52.090;5.030;2023-12-07T05:31:49;102007.97;;;-0.23;100.00
71907;BME280;59781;52.090;5.030;2023-12-07T05:34:16;102005.97;;;-0.37;100.00
71907;BME280;59781;52.090;5.030;2023-12-07T05:36:43;102012.63;;;-0.28;100.00
71907;BME280;59781;52.090;5.030;2023-12-07T05:39:09;102014.78;;;-0.55;100.00
71907;BME280;59781;52.090;5.030;2023-12-07T05:41:36;102021.50;;;-0.48;100.00
71907;BME280;59781;52.090;5.030;2023-12-07T05:44:02;102023.00;;;-0.42;100.00
71907;BME280;59781;52.090;5.030;2023-12-07T05:46:29;102021.25;;;-0.62;100.00
71907;BME280;59781;52.090;5.030;2023-12-07T05:48:55;102024.69;;;-0.41;100.00
71907;BME280;59781;52.090;5.030;2023-12-07T05:51:20;102021.97;;;-0.21;100.00
71907;BME280;59781;52.090;5.030;2023-12-07T05:53:46;102020.91;;;-0.17;100.00
71907;BME280;59781;52.090;5.030;2023-12-07T05:56:11;102012.97;;;-0.36;100.00
71907;BME280;59781;52.090;5.030;2023-12-07T05:58:37;102027.34;;;-0.60;100.00
71907;BME280;59781;52.090;5.030;2023-12-07T06:01:03;102023.53;;;-0.73;100.00
71907;BME280;59781;52.090;5.030;2023-12-07T06:03:29;102022.72;;;-0.94;100.00
71907;BME280;59781;52.090;5.030;2023-12-07T06:05:55;102028.69;;;-0.70;100.00
71907;BME280;59781;52.090;5.030;2023-12-07T06:08:22;102023.44;;;-0.91;100.00
71907;BME280;59781;52.090;5.030;2023-12-07T06:10:48;102024.25;;;-1.09;100.00
71907;BME280;59781;52.090;5.030;2023-12-07T06:13:14;102028.81;;;-0.92;100.00
71907;BME280;59781;52.090;5.030;2023-12-07T06:15:40;102033.34;;;-0.75;100.00
71907;BME280;59781;52.090;5.030;2023-12-07T06:18:06;102037.56;;;-0.71;100.00
71907;BME280;59781;52.090;5.030;2023-12-07T06:20:32;102045.31;;;-0.48;100.00
71907;BME280;59781;52.090;5.030;2023-12-07T06:22:59;102039.63;;;-0.59;100.00
71907;BME280;59781;52.090;5.030;2023-12-07T06:25:24;102037.44;;;-0.89;100.00
71907;BME280;59781;52.090;5.030;2023-12-07T06:27:50;102036.91;;;-0.76;100.00
71907;BME280;59781;52.090;5.030;2023-12-07T06:30:16;102034.81;;;-0.89;100.00
71907;BME280;59781;52.090;5.030;2023-12-07T06:32:43;102030.81;;;-0.97;100.00
71907;BME280;59781;52.090;5.030;2023-12-07T06:35:11;102027.59;;;-1.24;100.00
71907;BME280;59781;52.090;5.030;2023-12-07T06:37:37;102035.28;;;-0.99;100.00
71907;BME280;59781;52.090;5.030;2023-12-07T06:40:06;102030.00;;;-0.99;100.00
71907;BME280;59781;52.090;5.030;2023-12-07T06:42:34;102036.34;;;-1.03;100.00
71907;BME280;59781;52.090;5.030;2023-12-07T06:45:01;102033.63;;;-1.02;100.00
71907;BME280;59781;52.090;5.030;2023-12-07T06:47:27;102023.41;;;-1.09;100.00
71907;BME280;59781;52.090;5.030;2023-12-07T06:49:54;102025.78;;;-1.03;100.00
71907;BME280;59781;52.090;5.030;2023-12-07T06:52:20;102023.19;;;-0.84;100.00
71907;BME280;59781;52.090;5.030;2023-12-07T06:54:46;102011.75;;;-0.85;100.00
71907;BME280;59781;52.090;5.030;2023-12-07T06:57:13;102028.22;;;-0.99;100.00
71907;BME280;59781;52.090;5.030;2023-12-07T06:59:38;102019.34;;;-0.77;100.00
71907;BME280;59781;52.090;5.030;2023-12-07T07:02:06;102025.53;;;-0.97;100.00
71907;BME280;59781;52.090;5.030;2023-12-07T07:04:32;102028.03;;;-0.94;100.00
71907;BME280;59781;52.090;5.030;2023-12-07T07:06:57;102032.75;;;-0.82;100.00
71907;BME280;59781;52.090;5.030;2023-12-07T07:09:23;102028.41;;;-0.83;100.00
71907;BME280;59781;52.090;5.030;2023-12-07T07:11:49;102028.13;;;-0.77;100.00
71907;BME280;59781;52.090;5.030;2023-12-07T07:14:15;102031.06;;;-0.64;100.00
71907;BME280;59781;52.090;5.030;2023-12-07T07:16:42;102033.81;;;-0.86;100.00
71907;BME280;59781;52.090;5.030;2023-12-07T07:19:08;102039.59;;;-0.97;100.00
71907;BME280;59781;52.090;5.030;2023-12-07T07:21:33;102026.75;;;-0.85;100.00
71907;BME280;59781;52.090;5.030;2023-12-07T07:23:59;102040.34;;;-0.74;100.00
71907;BME280;59781;52.090;5.030;2023-12-07T07:26:25;102042.84;;;-0.71;100.00
71907;BME280;59781;52.090;5.030;2023-12-07T07:28:52;102050.22;;;-0.59;100.00
71907;BME280;59781;52.090;5.030;2023-12-07T07:31:18;102044.63;;;-0.72;100.00
71907;BME280;59781;52.090;5.030;2023-12-07T07:33:44;102049.22;;;-0.75;100.00
71907;BME280;59781;52.090;5.030;2023-12-07T07:36:13;102037.25;;;-0.84;100.00
71907;BME280;59781;52.090;5.030;2023-12-07T07:38:40;102033.09;;;-0.90;100.00
71907;BME280;59781;52.090;5.030;2023-12-07T07:41:06;102039.97;;;-0.85;100.00
71907;BME280;59781;52.090;5.030;2023-12-07T07:43:32;102033.03;;;-0.69;100.00
71907;BME280;59781;52.090;5.030;2023-12-07T07:46:00;102041.44;;;-0.78;100.00
71907;BME280;59781;52.090;5.030;2023-12-07T07:48:26;102042.31;;;-0.79;100.00
71907;BME280;59781;52.090;5.030;2023-12-07T07:50:52;102035.94;;;-0.55;100.00
71907;BME280;59781;52.090;5.030;2023-12-07T07:53:17;102033.72;;;-0.64;100.00
71907;BME280;59781;52.090;5.030;2023-12-07T07:55:43;102041.28;;;-0.75;100.00
71907;BME280;59781;52.090;5.030;2023-12-07T07:58:09;102038.66;;;-0.56;100.00
71907;BME280;59781;52.090;5.030;2023-12-07T08:00:35;102030.28;;;-0.66;100.00
71907;BME280;59781;52.090;5.030;2023-12-07T08:03:00;102043.50;;;-0.66;100.00
71907;BME280;59781;52.090;5.030;2023-12-07T08:05:26;102037.13;;;-0.62;100.00
71907;BME280;59781;52.090;5.030;2023-12-07T08:07:51;102039.78;;;-0.62;100.00
71907;BME280;59781;52.090;5.030;2023-12-07T08:10:17;102038.34;;;-0.69;100.00
71907;BME280;59781;52.090;5.030;2023-12-07T08:12:43;102037.47;;;-0.70;100.00
71907;BME280;59781;52.090;5.030;2023-12-07T08:15:12;102045.81;;;-0.79;100.00
71907;BME280;59781;52.090;5.030;2023-12-07T08:17:39;102043.16;;;-0.59;100.00
71907;BME280;59781;52.090;5.030;2023-12-07T08:20:10;102039.81;;;-0.43;100.00
71907;BME280;59781;52.090;5.030;2023-12-07T08:22:38;102035.78;;;-0.52;100.00
71907;BME280;59781;52.090;5.030;2023-12-07T08:25:04;102025.13;;;-0.50;100.00
71907;BME280;59781;52.090;5.030;2023-12-07T08:27:33;102030.31;;;-0.47;100.00
71907;BME280;59781;52.090;5.030;2023-12-07T08:30:00;102029.44;;;-0.48;100.00
71907;BME280;59781;52.090;5.030;2023-12-07T08:32:26;102035.09;;;-0.37;100.00
71907;BME280;59781;52.090;5.030;2023-12-07T08:34:52;102036.38;;;-0.26;100.00
71907;BME280;59781;52.090;5.030;2023-12-07T08:37:19;102030.22;;;-0.27;100.00
71907;BME280;59781;52.090;5.030;2023-12-07T08:39:45;102027.41;;;-0.24;100.00
71907;BME280;59781;52.090;5.030;2023-12-07T08:42:11;102031.16;;;-0.28;100.00
71907;BME280;59781;52.090;5.030;2023-12-07T08:44:37;102035.94;;;-0.55;100.00
71907;BME280;59781;52.090;5.030;2023-12-07T08:47:03;102039.38;;;-0.53;100.00
71907;BME280;59781;52.090;5.030;2023-12-07T08:49:29;102034.94;;;-0.52;100.00
71907;BME280;59781;52.090;5.030;2023-12-07T08:51:55;102033.06;;;-0.50;100.00
71907;BME280;59781;52.090;5.030;2023-12-07T08:54:21;102028.19;;;-0.22;100.00
71907;BME280;59781;52.090;5.030;2023-12-07T08:56:47;102026.75;;;-0.10;100.00
71907;BME280;59781;52.090;5.030;2023-12-07T08:59:13;102022.63;;;-0.16;100.00
71907;BME280;59781;52.090;5.030;2023-12-07T09:01:39;102005.53;;;-0.27;100.00
71907;BME280;59781;52.090;5.030;2023-12-07T09:04:05;102015.91;;;-0.42;100.00
71907;BME280;59781;52.090;5.030;2023-12-07T09:06:31;102018.72;;;-0.45;100.00
71907;BME280;59781;52.090;5.030;2023-12-07T09:08:57;102020.00;;;-0.35;100.00
71907;BME280;59781;52.090;5.030;2023-12-07T09:11:23;102027.66;;;-0.28;100.00
71907;BME280;59781;52.090;5.030;2023-12-07T09:13:49;102015.97;;;-0.43;100.00
71907;BME280;59781;52.090;5.030;2023-12-07T09:16:15;102007.53;;;-0.51;100.00
71907;BME280;59781;52.090;5.030;2023-12-07T09:18:43;102020.41;;;-0.44;100.00
71907;BME280;59781;52.090;5.030;2023-12-07T09:21:11;102020.94;;;-0.36;100.00
71907;BME280;59781;52.090;5.030;2023-12-07T09:23:37;102016.41;;;-0.34;100.00
71907;BME280;59781;52.090;5.030;2023-12-07T09:26:03;102016.25;;;-0.12;100.00
71907;BME280;59781;52.090;5.030;2023-12-07T09:28:29;102008.53;;;-0.35;100.00
71907;BME280;59781;52.090;5.030;2023-12-07T09:30:55;102018.97;;;-0.32;100.00
71907;BME280;59781;52.090;5.030;2023-12-07T09:33:20;102021.13;;;-0.40;100.00
71907;BME280;59781;52.090;5.030;2023-12-07T09:35:46;102017.81;;;-0.08;100.00
71907;BME280;59781;52.090;5.030;2023-12-07T09:38:12;102021.19;;;-0.04;100.00
71907;BME280;59781;52.090;5.030;2023-12-07T09:40:38;102029.47;;;-0.12;100.00
71907;BME280;59781;52.090;5.030;2023-12-07T09:43:04;102010.03;;;-0.30;100.00
71907;BME280;59781;52.090;5.030;2023-12-07T09:45:30;102002.41;;;-0.36;100.00
71907;BME280;59781;52.090;5.030;2023-12-07T09:47:56;102005.63;;;-0.29;100.00
71907;BME280;59781;52.090;5.030;2023-12-07T09:50:23;101996.09;;;-0.33;100.00
71907;BME280;59781;52.090;5.030;2023-12-07T09:52:53;101999.50;;;-0.12;100.00
71907;BME280;59781;52.090;5.030;2023-12-07T09:55:22;102003.28;;;0.01;100.00
71907;BME280;59781;52.090;5.030;2023-12-07T09:57:50;102006.47;;;-0.10;100.00
71907;BME280;59781;52.090;5.030;2023-12-07T10:00:17;102002.50;;;-0.20;100.00
71907;BME280;59781;52.090;5.030;2023-12-07T10:02:44;101987.63;;;-0.22;100.00
71907;BME280;59781;52.090;5.030;2023-12-07T10:05:14;101987.53;;;-0.02;100.00
71907;BME280;59781;52.090;5.030;2023-12-07T10:07:46;101985.47;;;-0.14;100.00
71907;BME280;59781;52.090;5.030;2023-12-07T10:10:14;101988.56;;;-0.23;100.00
71907;BME280;59781;52.090;5.030;2023-12-07T10:12:50;101986.81;;;-0.06;100.00
71907;BME280;59781;52.090;5.030;2023-12-07T10:15:18;101984.44;;;0.07;100.00
71907;BME280;59781;52.090;5.030;2023-12-07T10:17:53;101978.06;;;0.11;100.00
71907;BME280;59781;52.090;5.030;2023-12-07T10:20:25;101970.69;;;-0.18;100.00
71907;BME280;59781;52.090;5.030;2023-12-07T10:23:05;101960.66;;;0.06;100.00
71907;BME280;59781;52.090;5.030;2023-12-07T10:25:37;101954.34;;;-0.09;100.00
71907;BME280;59781;52.090;5.030;2023-12-07T10:28:04;101949.69;;;-0.04;100.00
71907;BME280;59781;52.090;5.030;2023-12-07T10:30:33;101948.56;;;-0.17;100.00
71907;BME280;59781;52.090;5.030;2023-12-07T10:32:59;101936.59;;;-0.07;100.00
71907;BME280;59781;52.090;5.030;2023-12-07T10:35:25;101930.97;;;-0.01;100.00
71907;BME280;59781;52.090;5.030;2023-12-07T10:37:51;101935.75;;;0.27;100.00
71907;BME280;59781;52.090;5.030;2023-12-07T10:40:17;101936.69;;;0.09;100.00
71907;BME280;59781;52.090;5.030;2023-12-07T10:42:48;101941.91;;;0.10;100.00
71907;BME280;59781;52.090;5.030;2023-12-07T10:45:15;101932.31;;;0.08;100.00
71907;BME280;59781;52.090;5.030;2023-12-07T10:47:43;101933.63;;;-0.01;100.00
71907;BME280;59781;52.090;5.030;2023-12-07T10:50:10;101925.69;;;0.16;100.00
71907;BME280;59781;52.090;5.030;2023-12-07T10:56:10;101917.06;;;0.30;100.00
71907;BME280;59781;52.090;5.030;2023-12-07T10:58:41;101911.88;;;0.62;100.00
71907;BME280;59781;52.090;5.030;2023-12-07T11:01:09;101902.72;;;0.34;100.00
71907;BME280;59781;52.090;5.030;2023-12-07T11:03:39;101898.41;;;0.49;100.00
71907;BME280;59781;52.090;5.030;2023-12-07T11:06:07;101891.81;;;0.40;100.00
71907;BME280;59781;52.090;5.030;2023-12-07T11:08:42;101894.19;;;0.62;100.00
71907;BME280;59781;52.090;5.030;2023-12-07T11:11:31;101885.34;;;0.79;100.00
71907;BME280;59781;52.090;5.030;2023-12-07T11:14:09;101887.66;;;0.52;100.00
71907;BME280;59781;52.090;5.030;2023-12-07T11:16:43;101886.81;;;0.67;100.00
71907;BME280;59781;52.090;5.030;2023-12-07T11:22:01;101876.41;;;0.64;100.00
71907;BME280;59781;52.090;5.030;2023-12-07T11:24:31;101869.28;;;0.65;100.00
71907;BME280;59781;52.090;5.030;2023-12-07T11:26:57;101877.03;;;0.69;100.00
71907;BME280;59781;52.090;5.030;2023-12-07T11:29:24;101867.84;;;0.75;100.00
71907;BME280;59781;52.090;5.030;2023-12-07T11:31:51;101871.53;;;0.72;100.00
71907;BME280;59781;52.090;5.030;2023-12-07T11:37:02;101874.00;;;0.60;100.00
71907;BME280;59781;52.090;5.030;2023-12-07T11:39:35;101871.00;;;0.66;100.00
71907;BME280;59781;52.090;5.030;2023-12-07T11:42:11;101877.66;;;0.90;100.00
71907;BME280;59781;52.090;5.030;2023-12-07T11:44:38;101866.50;;;0.83;100.00
71907;BME280;59781;52.090;5.030;2023-12-07T11:47:05;101855.59;;;0.90;100.00
71907;BME280;59781;52.090;5.030;2023-12-07T11:49:32;101837.00;;;0.74;100.00
71907;BME280;59781;52.090;5.030;2023-12-07T11:52:01;101835.22;;;0.90;100.00
71907;BME280;59781;52.090;5.030;2023-12-07T11:54:38;101830.69;;;0.92;100.00
71907;BME280;59781;52.090;5.030;2023-12-07T11:57:03;101820.25;;;0.89;100.00
71907;BME280;59781;52.090;5.030;2023-12-07T11:59:30;101817.75;;;0.86;100.00
71907;BME280;59781;52.090;5.030;2023-12-07T12:01:59;101826.81;;;1.13;100.00
71907;BME280;59781;52.090;5.030;2023-12-07T12:04:25;101814.84;;;1.06;100.00
71907;BME280;59781;52.090;5.030;2023-12-07T12:06:50;101805.09;;;0.91;100.00
71907;BME280;59781;52.090;5.030;2023-12-07T12:09:16;101808.78;;;1.20;100.00
71907;BME280;59781;52.090;5.030;2023-12-07T12:11:47;101801.44;;;1.09;100.00
71907;BME280;59781;52.090;5.030;2023-12-07T12:14:17;101807.13;;;1.18;100.00
71907;BME280;59781;52.090;5.030;2023-12-07T12:16:44;101802.00;;;1.30;100.00
71907;BME280;59781;52.090;5.030;2023-12-07T12:19:11;101800.19;;;1.31;100.00
71907;BME280;59781;52.090;5.030;2023-12-07T12:21:37;101798.91;;;1.38;100.00
71907;BME280;59781;52.090;5.030;2023-12-07T12:24:06;101790.53;;;1.30;100.00
71907;BME280;59781;52.090;5.030;2023-12-07T12:26:34;101783.66;;;1.26;100.00
71907;BME280;59781;52.090;5.030;2023-12-07T12:29:02;101772.19;;;1.25;100.00
71907;BME280;59781;52.090;5.030;2023-12-07T12:31:29;101761.16;;;1.33;100.00
71907;BME280;59781;52.090;5.030;2023-12-07T12:33:55;101755.31;;;1.42;100.00
71907;BME280;59781;52.090;5.030;2023-12-07T12:36:21;101742.44;;;1.50;100.00
71907;BME280;59781;52.090;5.030;2023-12-07T12:38:51;101746.84;;;1.35;100.00
71907;BME280;59781;52.090;5.030;2023-12-07T12:41:20;101729.63;;;1.42;100.00
71907;BME280;59781;52.090;5.030;2023-12-07T12:43:47;101723.38;;;1.43;100.00
71907;BME280;59781;52.090;5.030;2023-12-07T12:46:15;101705.00;;;1.55;100.00
71907;BME280;59781;52.090;5.030;2023-12-07T12:48:58;101694.94;;;1.46;100.00
71907;BME280;59781;52.090;5.030;2023-12-07T12:51:27;101696.31;;;1.37;100.00